Time;durP1;ratioP1;P1;durP2;ratioP2;P2;SDS_P1;SDS_P2;PMS_P1;PMS_P2;Temp;Humidity;BMP_temperature;BMP_pressure;BME280_temperature;BME280_humidity;BME280_pressure;Samples;Min_cycle;Max_cycle;Signal;HPM_P1;HPM_P2
2021/05/18 00:01:52;;;;;;;1.12;1.02;;;;;;;11.55;100.00;99456.24;1662488;83;21028;-41
2021/05/18 00:04:19;;;;;;;0.82;0.82;;;;;;;11.55;100.00;99452.94;1707885;83;21059;-45
2021/05/18 00:06:47;;;;;;;1.50;0.95;;;;;;;11.54;100.00;99448.57;1705393;83;21553;-45
2021/05/18 00:11:58;;;;;;;2.62;2.35;;;;;;;11.52;100.00;99443.99;1742109;80;21570;-40
2021/05/18 00:14:26;;;;;;;0.70;0.70;;;;;;;11.49;100.00;99443.22;1677092;84;21047;-40
2021/05/18 00:16:54;;;;;;;1.40;1.15;;;;;;;11.47;100.00;99449.55;1742518;81;20992;-45
2021/05/18 00:19:21;;;;;;;0.80;0.80;;;;;;;11.45;100.00;99449.08;1718913;81;21026;-40
2021/05/18 00:21:47;;;;;;;1.52;1.40;;;;;;;11.43;100.00;99455.41;1746699;81;21073;-40
2021/05/18 00:24:14;;;;;;;0.65;0.65;;;;;;;11.34;100.00;99446.32;1748261;81;21067;-41
2021/05/18 00:26:41;;;;;;;1.05;0.65;;;;;;;11.27;100.00;99445.94;1745891;81;21598;-41
2021/05/18 00:29:07;;;;;;;0.78;0.78;;;;;;;11.24;100.00;99446.56;1746167;81;21028;-41
2021/05/18 00:31:34;;;;;;;1.12;1.02;;;;;;;11.22;100.00;99451.52;1748015;81;21084;-41
2021/05/18 00:34:03;;;;;;;2.40;1.00;;;;;;;11.19;100.00;99445.55;1748582;81;21546;-40
2021/05/18 00:36:29;;;;;;;1.00;0.75;;;;;;;11.14;100.00;99436.09;1744311;81;21495;-45
2021/05/18 00:38:56;;;;;;;1.17;0.95;;;;;;;11.14;100.00;99433.36;1736559;81;21094;-46
2021/05/18 00:41:22;;;;;;;2.27;1.35;;;;;;;11.16;100.00;99433.86;1749404;81;21653;-40
2021/05/18 00:43:48;;;;;;;1.20;1.10;;;;;;;11.14;100.00;99418.31;1743987;81;21054;-43
2021/05/18 00:46:15;;;;;;;0.75;0.75;;;;;;;11.14;100.00;99423.79;1720022;82;21062;-41
2021/05/18 00:48:56;;;;;;;1.05;1.05;;;;;;;11.14;100.00;99418.31;1746058;80;21446;-41
2021/05/18 00:51:10;;;;;;;1.87;1.75;;;;;;;11.13;100.00;99413.98;1744741;81;21049;-43
2021/05/18 00:53:39;;;;;;;1.25;0.82;;;;;;;11.12;100.00;99405.51;1726020;81;21595;-45
2021/05/18 00:59:00;;;;;;;0.40;0.40;;;;;;;11.12;100.00;99408.81;1747794;81;21038;-46
2021/05/18 01:01:30;;;;;;;0.90;0.90;;;;;;;11.11;100.00;99401.73;1747754;81;21593;-40
2021/05/18 01:03:57;;;;;;;2.98;1.35;;;;;;;11.09;100.00;99399.86;1726913;81;21050;-45
2021/05/18 01:08:58;;;;;;;0.72;0.42;;;;;;;11.07;100.00;99400.72;1720026;83;21058;-42
2021/05/18 01:11:29;;;;;;;0.88;0.85;;;;;;;11.03;100.00;99399.71;1739264;81;21733;-42
2021/05/18 01:14:00;;;;;;;3.20;1.05;;;;;;;11.00;100.00;99396.23;1747673;81;21054;-46
2021/05/18 01:16:32;;;;;;;0.57;0.57;;;;;;;10.97;100.00;99390.83;1748462;81;21561;-46
2021/05/18 01:18:59;;;;;;;2.42;1.20;;;;;;;10.95;100.00;99381.59;1721536;81;21071;-45
2021/05/18 01:21:25;;;;;;;0.82;0.82;;;;;;;10.93;100.00;99387.91;1733342;81;21089;-40
2021/05/18 01:23:52;;;;;;;1.55;0.72;;;;;;;10.93;100.00;99393.94;1725377;81;21090;-45
2021/05/18 01:26:20;;;;;;;0.85;0.80;;;;;;;10.90;100.00;99400.00;1749543;81;21110;-45
2021/05/18 01:28:48;;;;;;;0.50;0.50;;;;;;;10.87;100.00;99402.80;1732237;81;21026;-46
2021/05/18 01:31:22;;;;;;;1.75;1.07;;;;;;;10.84;100.00;99403.41;1748277;81;21504;-40
2021/05/18 01:33:46;;;;;;;1.32;1.22;;;;;;;10.81;100.00;99396.40;1704113;83;21031;-41
2021/05/18 01:36:17;;;;;;;1.55;1.00;;;;;;;10.79;100.00;99391.79;1748915;81;21619;-42
2021/05/18 01:44:06;;;;;;;1.65;0.65;;;;;;;10.78;100.00;99396.45;1723938;82;21083;-42
2021/05/18 01:46:33;;;;;;;1.35;1.10;;;;;;;10.76;100.00;99386.38;1734328;82;21391;-43
2021/05/18 01:49:05;;;;;;;1.17;1.15;;;;;;;10.75;100.00;99387.48;1723516;81;21057;-41
2021/05/18 01:51:37;;;;;;;1.15;1.15;;;;;;;10.72;100.00;99384.80;1675042;84;21098;-41
2021/05/18 01:54:10;;;;;;;0.53;0.53;;;;;;;10.71;100.00;99378.30;1744235;81;21552;-41
2021/05/18 01:56:47;;;;;;;0.98;0.98;;;;;;;10.70;100.00;99374.73;1725827;82;21041;-41
2021/05/18 01:59:17;;;;;;;0.57;0.57;;;;;;;10.69;100.00;99379.95;1684537;84;21032;-45
2021/05/18 02:01:43;;;;;;;1.22;1.12;;;;;;;10.68;100.00;99382.45;1737668;81;21753;-45
2021/05/18 02:04:30;;;;;;;0.40;0.40;;;;;;;10.69;100.00;99388.72;1735432;81;21034;-45
2021/05/18 02:06:59;;;;;;;1.45;1.32;;;;;;;10.68;100.00;99384.34;1741271;81;21698;-41
2021/05/18 02:09:26;;;;;;;0.50;0.45;;;;;;;10.66;100.00;99377.84;1706875;81;21587;-41
2021/05/18 02:11:56;;;;;;;0.60;0.60;;;;;;;10.66;100.00;99377.84;1742200;81;21026;-45
2021/05/18 02:14:30;;;;;;;2.47;1.55;;;;;;;10.65;100.00;99384.97;1750090;81;21031;-41
2021/05/18 02:17:17;;;;;;;0.55;0.55;;;;;;;10.64;100.00;99382.80;1752666;81;21731;-40
2021/05/18 02:25:03;;;;;;;1.22;1.15;;;;;;;10.59;100.00;99385.64;1710106;83;21517;-41
2021/05/18 02:27:35;;;;;;;1.12;0.55;;;;;;;10.57;100.00;99381.03;1686847;83;21032;-41
2021/05/18 02:30:02;;;;;;;0.35;0.33;;;;;;;10.58;100.00;99383.20;1748502;80;21074;-46
2021/05/18 02:32:31;;;;;;;1.15;0.80;;;;;;;10.58;100.00;99388.66;1734966;81;21654;-40
2021/05/18 02:35:04;;;;;;;1.60;1.02;;;;;;;10.58;100.00;99393.56;1710184;81;21245;-46
2021/05/18 02:37:31;;;;;;;1.27;1.20;;;;;;;10.61;100.00;99397.08;1726578;82;21082;-41
2021/05/18 02:39:58;;;;;;;1.35;1.25;;;;;;;10.64;100.00;99384.73;1743814;81;21042;-46
2021/05/18 02:42:25;;;;;;;1.60;1.32;;;;;;;10.65;100.00;99381.67;1747083;81;21566;-41
2021/05/18 02:45:01;;;;;;;1.02;1.02;;;;;;;10.70;100.00;99390.32;1745341;81;21050;-41
2021/05/18 02:50:08;;;;;;;1.47;0.98;;;;;;;10.81;100.00;99400.50;1674442;84;21051;-40
2021/05/18 02:52:38;;;;;;;0.60;0.60;;;;;;;10.85;100.00;99398.19;1747595;81;21045;-45
2021/05/18 02:55:04;;;;;;;1.80;1.30;;;;;;;10.89;100.00;99399.77;1679305;83;21076;-46
2021/05/18 02:57:34;;;;;;;0.57;0.57;;;;;;;10.94;100.00;99413.31;1702646;82;21081;-43
2021/05/18 03:00:06;;;;;;;3.15;1.72;;;;;;;10.99;100.00;99405.00;1716387;82;21090;-41
2021/05/18 03:02:33;;;;;;;2.12;1.10;;;;;;;11.05;100.00;99405.13;1716783;82;21110;-40
2021/05/18 03:04:59;;;;;;;2.75;1.20;;;;;;;11.11;100.00;99414.04;1716500;81;21050;-44
2021/05/18 03:07:26;;;;;;;1.25;1.15;;;;;;;11.16;100.00;99414.72;1714849;82;21023;-42
2021/05/18 03:09:53;;;;;;;2.70;1.35;;;;;;;11.24;100.00;99416.48;1713322;82;21046;-46
2021/05/18 03:12:19;;;;;;;2.20;1.98;;;;;;;11.30;100.00;99407.86;1731171;82;21097;-40
2021/05/18 03:14:48;;;;;;;3.00;1.55;;;;;;;11.40;100.00;99411.71;1734545;81;21031;-46
2021/05/18 03:17:15;;;;;;;0.95;0.95;;;;;;;11.47;100.00;99413.19;1668243;84;21082;-41
2021/05/18 03:19:41;;;;;;;0.62;0.62;;;;;;;11.51;100.00;99416.37;1718273;82;21050;-42
2021/05/18 03:22:08;;;;;;;1.02;1.02;;;;;;;11.56;100.00;99418.98;1705831;81;21166;-45
2021/05/18 03:24:35;;;;;;;1.32;0.90;;;;;;;11.61;100.00;99421.59;1720798;81;21094;-45
2021/05/18 03:27:03;;;;;;;1.60;1.15;;;;;;;11.66;100.00;99419.29;1712264;82;21046;-42
2021/05/18 03:29:32;;;;;;;0.82;0.70;;;;;;;11.72;100.00;99422.70;1720121;83;21038;-40
2021/05/18 03:34:42;;;;;;;1.05;0.95;;;;;;;11.87;100.00;99421.53;1718464;82;21062;-41
2021/05/18 03:37:32;;;;;;;1.95;1.22;;;;;;;11.94;100.00;99433.69;1675842;84;21065;-46
2021/05/18 03:39:56;;;;;;;1.15;1.02;;;;;;;11.99;100.00;99433.55;1723025;82;21130;-46
2021/05/18 03:42:35;;;;;;;3.55;1.17;;;;;;;12.05;100.00;99437.76;1723645;81;21073;-41
2021/05/18 04:17:08;;;;;;;2.27;1.32;;;;;;;13.18;100.00;99422.24;1630263;85;21207;-46
2021/05/18 04:19:42;;;;;;;2.83;1.90;;;;;;;13.25;100.00;99421.20;1647854;84;21060;-41
2021/05/18 04:22:29;;;;;;;1.98;1.20;;;;;;;13.32;100.00;99422.91;1674999;82;21054;-46
2021/05/18 04:51:47;;;;;;;1.72;1.62;;;;;;;13.94;100.00;99426.40;1750776;81;21008;-42
2021/05/18 04:59:44;;;;;;;2.00;1.82;;;;;;;14.10;100.00;99416.51;1749332;81;21022;-46
2021/05/18 05:07:09;;;;;;;1.02;1.02;;;;;;;14.22;100.00;99421.87;1733254;81;21050;-41
2021/05/18 05:09:38;;;;;;;1.45;0.95;;;;;;;14.26;100.00;99426.95;1733023;81;21103;-46
2021/05/18 05:14:49;;;;;;;1.67;1.50;;;;;;;14.34;100.00;99413.74;1739741;81;21042;-45
2021/05/18 05:17:17;;;;;;;1.40;1.20;;;;;;;14.41;100.00;99411.29;1729675;81;21090;-46
2021/05/18 05:19:45;;;;;;;0.70;0.62;;;;;;;14.50;100.00;99415.39;1718559;81;21185;-48
2021/05/18 05:22:13;;;;;;;3.08;1.35;;;;;;;14.59;100.00;99410.70;1734429;81;21058;-43
2021/05/18 05:24:41;;;;;;;1.62;1.52;;;;;;;14.71;100.00;99411.34;1720714;81;21046;-48
2021/05/18 05:27:08;;;;;;;1.80;1.50;;;;;;;14.84;100.00;99413.86;1717624;82;21081;-42
2021/05/18 05:29:34;;;;;;;2.42;2.22;;;;;;;15.00;100.00;99425.06;1714555;82;20994;-47
2021/05/18 05:32:01;;;;;;;3.42;1.20;;;;;;;15.16;100.00;99431.38;1705630;83;21057;-47
2021/05/18 05:34:28;;;;;;;2.40;2.20;;;;;;;15.27;100.00;99433.95;1724802;81;21043;-47
2021/05/18 05:36:54;;;;;;;2.87;1.55;;;;;;;15.32;100.00;99441.20;1707086;82;21027;-44
2021/05/18 05:39:24;;;;;;;1.80;1.52;;;;;;;15.37;100.00;99433.55;1750794;81;21054;-43
2021/05/18 05:41:55;;;;;;;0.90;0.90;;;;;;;15.40;100.00;99434.23;1750168;81;21082;-48
2021/05/18 05:44:22;;;;;;;3.27;1.85;;;;;;;15.44;100.00;99426.93;1751862;81;21115;-47
2021/05/18 05:46:49;;;;;;;1.15;0.93;;;;;;;15.51;100.00;99425.59;1747598;81;21003;-44
2021/05/18 05:49:16;;;;;;;1.25;1.15;;;;;;;15.55;100.00;99424.56;1747601;81;20983;-47
2021/05/18 05:51:43;;;;;;;1.12;0.98;;;;;;;15.63;100.00;99425.66;1749173;81;21585;-46
2021/05/18 05:54:10;;;;;;;0.98;0.88;;;;;;;15.70;100.00;99427.29;1748155;81;21049;-42
2021/05/18 05:56:36;;;;;;;9.45;1.27;;;;;;;15.76;100.00;99425.95;1746270;81;21596;-48
2021/05/18 05:59:05;;;;;;;1.50;1.40;;;;;;;15.84;100.00;99423.67;1744605;81;21058;-47
2021/05/18 06:01:32;;;;;;;1.25;1.15;;;;;;;15.93;100.00;99424.18;1748708;81;21066;-47
2021/05/18 06:03:59;;;;;;;1.62;1.12;;;;;;;16.04;100.00;99426.14;1749667;81;21198;-48
2021/05/18 06:06:26;;;;;;;1.47;0.80;;;;;;;16.16;100.00;99410.79;1748862;81;21070;-42
2021/05/18 06:08:54;;;;;;;2.85;1.22;;;;;;;16.29;100.00;99409.07;1743762;81;21084;-41
2021/05/18 06:11:32;;;;;;;1.02;0.88;;;;;;;16.48;100.00;99411.86;1746271;81;21555;-47
2021/05/18 06:14:04;;;;;;;2.85;1.32;;;;;;;16.67;100.00;99416.23;1747409;81;21036;-47
2021/05/18 06:48:10;;;;;;;1.42;0.82;;;;;;;17.68;100.00;99402.10;1718402;82;21078;-47
2021/05/18 06:50:36;;;;;;;0.30;0.30;;;;;;;17.82;100.00;99394.80;1718778;82;21042;-42
2021/05/18 06:53:03;;;;;;;3.55;0.93;;;;;;;17.98;100.00;99394.25;1720345;83;21594;-46
2021/05/18 06:55:34;;;;;;;1.00;0.62;;;;;;;18.19;100.00;99390.42;1715105;82;21050;-44
2021/05/18 06:58:08;;;;;;;0.77;0.77;;;;;;;18.41;100.00;99384.27;1716552;82;21026;-42
2021/05/18 07:00:36;;;;;;;3.72;0.60;;;;;;;18.59;99.73;99386.66;1715552;82;21037;-42
2021/05/18 07:03:03;;;;;;;1.30;1.20;;;;;;;19.00;97.69;99371.42;1715583;82;21100;-42
2021/05/18 07:08:09;;;;;;;0.42;0.42;;;;;;;19.28;97.45;99330.27;1720987;83;21042;-43
2021/05/18 07:10:28;;;;;;;0.42;0.42;;;;;;;19.49;96.72;99363.14;1714453;82;21666;-45
2021/05/18 07:12:56;;;;;;;3.12;1.17;;;;;;;19.78;95.10;99360.94;1712859;82;21659;-44
2021/05/18 07:15:26;;;;;;;1.52;1.32;;;;;;;20.05;93.28;99352.91;1716398;82;21057;-39
2021/05/18 07:17:52;;;;;;;0.62;0.42;;;;;;;20.30;92.79;99351.14;1722229;81;21059;-45
2021/05/18 07:20:20;;;;;;;0.95;0.80;;;;;;;20.47;89.85;99347.05;1740438;81;21524;-40
2021/05/18 07:22:49;;;;;;;0.65;0.57;;;;;;;20.45;86.70;99351.61;1749720;82;21051;-45
2021/05/18 07:25:16;;;;;;;2.35;0.95;;;;;;;20.47;86.45;99349.23;1750029;81;21611;-43
2021/05/18 07:27:43;;;;;;;0.57;0.57;;;;;;;20.52;84.87;99346.14;1749578;81;21357;-39
2021/05/18 07:30:11;;;;;;;0.40;0.40;;;;;;;20.54;83.71;99343.80;1749160;81;21197;-44
2021/05/18 07:32:37;;;;;;;0.50;0.50;;;;;;;20.54;82.53;99352.13;1749235;81;21667;-41
2021/05/18 07:35:05;;;;;;;0.62;0.55;;;;;;;20.66;82.12;99349.76;1727232;81;21062;-40
2021/05/18 07:37:33;;;;;;;0.65;0.62;;;;;;;20.92;83.22;99343.96;1718038;82;21049;-46
2021/05/18 07:39:59;;;;;;;0.10;0.10;;;;;;;21.19;82.85;99343.32;1719487;82;21054;-43
2021/05/18 07:42:27;;;;;;;0.68;0.62;;;;;;;21.46;81.73;99351.84;1718872;82;21081;-41
2021/05/18 07:44:54;;;;;;;0.72;0.72;;;;;;;21.75;81.34;99353.53;1708346;82;21061;-42
2021/05/18 07:47:23;;;;;;;1.10;0.78;;;;;;;22.00;77.09;99355.76;1716887;82;21599;-40
2021/05/18 07:49:52;;;;;;;0.68;0.30;;;;;;;22.12;75.36;99358.26;1715206;82;21591;-40
2021/05/18 08:05:50;;;;;;;0.42;0.42;;;;;;;22.52;69.65;99358.01;1720381;83;21114;-39
2021/05/18 08:08:17;;;;;;;1.45;0.55;;;;;;;22.51;68.97;99356.42;1718778;82;21035;-40
2021/05/18 08:10:51;;;;;;;0.47;0.40;;;;;;;22.60;69.54;99351.90;1718202;82;21057;-40
2021/05/18 08:13:23;;;;;;;0.35;0.33;;;;;;;22.73;69.20;99356.77;1721041;83;21110;-45
2021/05/18 10:26:28;;;;;;;1.07;0.98;;;;;;;22.56;66.95;99273.15;1722275;81;21154;-40
2021/05/18 10:38:39;;;;;;;1.90;1.25;;;;;;;22.23;70.66;99261.81;1746723;81;21884;-40
2021/05/18 10:41:28;;;;;;;0.88;0.78;;;;;;;22.54;70.11;99247.08;1733653;81;21109;-45
2021/05/18 10:43:59;;;;;;;1.50;0.60;;;;;;;22.87;69.37;99253.03;1717533;82;21607;-40
2021/05/18 10:46:28;;;;;;;0.50;0.50;;;;;;;23.09;67.53;99249.73;1716435;82;21037;-46
2021/05/18 10:49:01;;;;;;;1.07;0.72;;;;;;;23.02;66.15;99249.73;1718684;82;21536;-46
2021/05/18 10:51:44;;;;;;;0.47;0.47;;;;;;;22.84;67.11;99239.86;1719345;83;20975;-46
2021/05/18 10:54:22;;;;;;;1.35;0.82;;;;;;;22.81;67.67;99239.26;1731686;81;21094;-46
2021/05/18 10:57:05;;;;;;;1.62;1.40;;;;;;;22.67;68.77;99235.80;1700497;83;21136;-40
2021/05/18 10:59:40;;;;;;;;;;;;;;;22.60;68.63;99229.41;1742336;81;21074;-40
2021/05/18 11:02:12;;;;;;;0.62;0.53;;;;;;;22.52;68.13;99225.19;1731406;81;20220;-46
2021/05/18 11:04:49;;;;;;;;;;;;;;;22.35;67.43;99223.70;1745031;80;21072;-45
2021/05/18 11:07:21;;;;;;;0.72;0.60;;;;;;;22.18;67.92;99225.16;1728580;81;20480;-46
2021/05/18 11:09:47;;;;;;;0.80;0.80;;;;;;;22.11;69.56;99228.70;1748260;81;21048;-39
2021/05/18 11:12:20;;;;;;;1.07;0.90;;;;;;;22.17;69.58;99216.02;1733527;81;21010;-40
2021/05/18 11:15:08;;;;;;;0.70;0.70;;;;;;;22.20;68.51;99215.87;1731936;81;21078;-40
2021/05/18 11:17:42;;;;;;;1.22;0.98;;;;;;;22.24;65.79;99211.13;1733450;81;21046;-44
2021/05/18 11:20:23;;;;;;;0.70;0.55;;;;;;;22.42;66.36;99204.27;1734165;81;21098;-40
2021/05/18 11:25:42;;;;;;;0.62;0.62;;;;;;;23.33;61.92;99187.50;1719690;81;21070;-46
2021/05/18 11:28:16;;;;;;;2.25;1.55;;;;;;;23.88;57.45;99192.70;1714964;83;21006;-46
2021/05/18 11:30:49;;;;;;;0.40;0.40;;;;;;;24.24;57.38;99193.45;1719406;82;21065;-41
2021/05/18 11:33:15;;;;;;;0.47;0.47;;;;;;;24.41;56.61;99196.00;1748482;81;21078;-41
2021/05/18 11:35:42;;;;;;;0.50;0.50;;;;;;;24.56;56.18;99193.20;1749993;81;21058;-46
2021/05/18 11:38:14;;;;;;;0.85;0.55;;;;;;;24.80;58.38;99199.87;1744175;81;21046;-41
2021/05/18 11:40:50;;;;;;;1.02;0.62;;;;;;;24.74;58.62;99202.90;1715873;81;21153;-40
2021/05/18 11:43:24;;;;;;;1.72;1.25;;;;;;;24.49;59.35;99202.39;1746487;81;21006;-46
2021/05/18 11:46:08;;;;;;;1.55;0.93;;;;;;;24.25;59.81;99199.22;1728263;81;21608;-46
2021/05/18 11:48:36;;;;;;;0.85;0.80;;;;;;;23.96;60.41;99194.31;1739678;81;21621;-45
2021/05/18 11:51:11;;;;;;;0.40;0.40;;;;;;;23.67;61.24;99192.70;1720325;81;21057;-41
2021/05/18 11:53:46;;;;;;;0.45;0.45;;;;;;;23.49;62.52;99192.11;1717966;82;21097;-41
2021/05/18 11:56:27;;;;;;;0.98;0.85;;;;;;;23.64;63.40;99182.33;1730057;81;21050;-46
2021/05/18 11:59:08;;;;;;;0.30;0.30;;;;;;;23.66;61.78;99180.73;1723544;81;21082;-40
2021/05/18 12:02:05;;;;;;;0.45;0.45;;;;;;;23.43;62.74;99178.34;1737154;81;20979;-40
2021/05/18 12:04:36;;;;;;;1.05;0.70;;;;;;;23.24;62.08;99178.11;1748198;81;21038;-39
2021/05/18 12:07:10;;;;;;;0.85;0.50;;;;;;;22.76;62.98;99176.38;1728584;81;21366;-40
2021/05/18 12:09:44;;;;;;;1.30;1.17;;;;;;;22.30;64.09;99183.95;1740561;81;21086;-40
2021/05/18 12:12:15;;;;;;;0.93;0.50;;;;;;;21.87;65.48;99186.41;1734882;81;21591;-45
2021/05/18 12:14:48;;;;;;;1.40;0.72;;;;;;;21.61;66.36;99183.81;1726782;81;21673;-39
2021/05/18 12:17:26;;;;;;;1.27;0.68;;;;;;;21.50;67.88;99180.95;1719832;82;21638;-46
2021/05/18 12:19:53;;;;;;;0.85;0.70;;;;;;;21.55;68.08;99177.03;1734312;81;21047;-39
2021/05/18 12:22:20;;;;;;;0.70;0.70;;;;;;;21.63;69.04;99175.90;1734306;81;21157;-41
2021/05/18 12:24:46;;;;;;;0.98;0.88;;;;;;;21.72;68.53;99170.02;1717460;82;21053;-39
2021/05/18 12:27:14;;;;;;;0.35;0.30;;;;;;;21.77;68.62;99169.66;1719983;83;21018;-46
2021/05/18 12:29:53;;;;;;;1.57;0.78;;;;;;;21.66;67.91;99172.34;1716549;82;21054;-46
2021/05/18 12:32:30;;;;;;;0.62;0.53;;;;;;;21.47;68.46;99170.02;1714704;82;21505;-45
2021/05/18 12:35:16;;;;;;;0.53;0.50;;;;;;;21.27;68.59;99165.84;1719662;82;21039;-46
2021/05/18 12:37:49;;;;;;;0.30;0.30;;;;;;;21.06;68.41;99166.42;1728415;81;21039;-45
2021/05/18 12:40:28;;;;;;;0.80;0.80;;;;;;;20.81;68.60;99153.66;1731643;81;21229;-44
2021/05/18 12:43:07;;;;;;;0.60;0.60;;;;;;;20.63;69.59;99163.78;1734266;81;20985;-46
2021/05/18 12:45:33;;;;;;;1.05;0.68;;;;;;;20.35;71.05;99164.96;1716120;82;21038;-40
2021/05/18 12:48:00;;;;;;;0.85;0.85;;;;;;;20.10;72.29;99170.99;1719853;82;21043;-45
2021/05/18 12:50:47;;;;;;;0.23;0.23;;;;;;;19.90;73.24;99163.34;1720658;82;21640;-40
2021/05/18 12:53:27;;;;;;;0.42;0.40;;;;;;;19.72;74.23;99164.47;1720552;82;21574;-45
2021/05/18 12:55:54;;;;;;;0.68;0.60;;;;;;;19.55;74.61;99167.73;1717144;82;21049;-45
2021/05/18 12:58:28;;;;;;;0.70;0.70;;;;;;;19.44;74.73;99184.18;1718107;81;21042;-41
2021/05/18 13:01:12;;;;;;;1.45;0.95;;;;;;;19.38;74.91;99180.69;1714955;82;21119;-45
2021/05/18 13:03:41;;;;;;;0.90;0.88;;;;;;;19.36;75.16;99176.89;1721668;82;21113;-45
2021/05/18 13:06:08;;;;;;;0.85;0.53;;;;;;;19.43;75.15;99172.08;1704181;82;21030;-45
2021/05/18 13:08:37;;;;;;;0.70;0.60;;;;;;;19.47;75.01;99174.33;1718109;82;21651;-45
2021/05/18 13:11:17;;;;;;;2.33;0.82;;;;;;;19.48;75.21;99170.37;1719678;82;21571;-45
2021/05/18 13:13:45;;;;;;;0.98;0.70;;;;;;;19.47;74.23;99173.73;1714415;82;21136;-45
2021/05/18 13:16:31;;;;;;;0.57;0.55;;;;;;;19.46;74.20;99180.45;1716172;82;21062;-48
2021/05/18 13:19:02;;;;;;;0.65;0.50;;;;;;;19.40;76.00;99188.05;1730814;81;21134;-43
2021/05/18 13:21:39;;;;;;;0.33;0.33;;;;;;;19.01;81.50;99215.23;1732295;81;21590;-48
2021/05/18 13:26:36;;;;;;;0.72;0.72;;;;;;;18.41;80.96;99214.18;1747852;81;21152;-46
2021/05/18 13:29:23;;;;;;;0.70;0.62;;;;;;;17.89;82.63;99216.75;1747898;81;21102;-52
2021/05/18 13:31:50;;;;;;;0.20;0.20;;;;;;;17.55;85.37;99227.33;1726198;81;21021;-50
2021/05/18 13:34:17;;;;;;;0.57;0.47;;;;;;;17.28;87.03;99242.00;1717440;82;21041;-46
2021/05/18 13:36:44;;;;;;;0.80;0.62;;;;;;;17.08;88.21;99257.05;1720505;82;21046;-45
2021/05/18 13:39:14;;;;;;;0.55;0.40;;;;;;;16.91;89.46;99273.90;1703719;82;21037;-47
2021/05/18 13:41:41;;;;;;;0.88;0.75;;;;;;;16.72;89.79;99279.45;1718795;83;21567;-50
2021/05/18 13:44:08;;;;;;;0.75;0.75;;;;;;;16.55;90.45;99290.76;1720565;82;21063;-45
2021/05/18 13:46:36;;;;;;;0.17;0.17;;;;;;;16.42;90.34;99296.05;1721612;82;21014;-44
2021/05/18 13:49:03;;;;;;;1.10;0.55;;;;;;;16.26;90.23;99294.00;1716031;82;21054;-44
2021/05/18 13:51:31;;;;;;;0.68;0.40;;;;;;;16.12;89.81;99285.27;1717845;82;21144;-46
2021/05/18 13:53:59;;;;;;;0.40;0.40;;;;;;;15.99;89.94;99287.22;1719329;82;21120;-45
2021/05/18 13:56:26;;;;;;;0.90;0.45;;;;;;;15.89;90.63;99291.23;1715080;82;21618;-42
2021/05/18 13:58:53;;;;;;;0.95;0.47;;;;;;;15.82;90.95;99295.13;1721341;83;21066;-42
2021/05/18 14:01:20;;;;;;;0.68;0.28;;;;;;;15.74;91.03;99294.66;1719476;82;21078;-46
2021/05/18 14:03:48;;;;;;;0.20;0.20;;;;;;;15.66;91.60;99287.28;1715246;82;21035;-44
2021/05/18 14:06:15;;;;;;;0.75;0.25;;;;;;;15.51;92.03;99285.98;1720324;81;21070;-50
2021/05/18 14:08:43;;;;;;;0.40;0.40;;;;;;;15.38;92.41;99278.83;1720201;83;21066;-48
2021/05/18 14:11:20;;;;;;;0.23;0.23;;;;;;;15.22;93.44;99276.72;1719541;82;21015;-50
2021/05/18 14:13:48;;;;;;;0.30;0.30;;;;;;;15.04;93.99;99269.21;1711369;82;21043;-47
2021/05/18 14:16:18;;;;;;;1.95;0.40;;;;;;;14.86;94.91;99267.77;1716276;82;21072;-52
2021/05/18 14:18:50;;;;;;;0.50;0.33;;;;;;;14.74;95.89;99274.01;1725831;81;21078;-52
2021/05/18 14:21:19;;;;;;;1.07;0.50;;;;;;;14.62;96.63;99272.56;1747679;81;21548;-46
2021/05/18 14:26:23;;;;;;;1.00;0.65;;;;;;;14.48;98.18;99264.53;1719881;82;21046;-46
2021/05/18 14:28:51;;;;;;;0.72;0.60;;;;;;;14.44;98.80;99260.03;1720319;83;21674;-52
2021/05/18 14:31:17;;;;;;;1.07;0.68;;;;;;;14.41;99.31;99254.64;1719367;82;21022;-52
2021/05/18 14:33:44;;;;;;;0.37;0.33;;;;;;;14.42;99.94;99254.89;1717365;82;21037;-52
2021/05/18 14:36:11;;;;;;;0.85;0.85;;;;;;;14.45;100.00;99241.84;1719921;82;21054;-47
2021/05/18 14:38:45;;;;;;;0.37;0.37;;;;;;;14.49;100.00;99234.55;1716957;82;21713;-47
2021/05/18 14:46:29;;;;;;;0.55;0.55;;;;;;;14.62;100.00;99219.75;1739196;81;21017;-46
2021/05/18 14:54:43;;;;;;;0.68;0.57;;;;;;;14.76;100.00;99207.66;1740406;81;20996;-51
2021/05/18 14:56:37;;;;;;;0.93;0.60;;;;;;;14.81;100.00;99201.95;1716558;81;21017;-51
2021/05/18 14:59:04;;;;;;;1.15;0.40;;;;;;;14.85;100.00;99201.52;1739364;81;20983;-45
2021/05/18 15:01:30;;;;;;;2.55;1.25;;;;;;;14.87;100.00;99199.23;1749436;81;21500;-52
2021/05/18 15:03:57;;;;;;;1.45;1.27;;;;;;;14.89;100.00;99190.66;1739414;81;21046;-46
2021/05/18 15:06:23;;;;;;;0.80;0.80;;;;;;;14.92;100.00;99192.72;1745689;81;21069;-51
2021/05/18 15:08:51;;;;;;;0.68;0.68;;;;;;;14.91;100.00;99187.80;1733733;81;21588;-45
2021/05/18 15:11:17;;;;;;;0.80;0.42;;;;;;;14.91;100.00;99180.09;1730881;81;21494;-51
2021/05/18 15:13:45;;;;;;;0.90;0.50;;;;;;;14.93;100.00;99177.81;1720188;81;21046;-52
2021/05/18 15:16:11;;;;;;;0.25;0.25;;;;;;;14.93;100.00;99178.61;1715831;82;21086;-52
2021/05/18 15:18:38;;;;;;;1.85;0.45;;;;;;;14.95;100.00;99177.70;1687860;83;21584;-52
2021/05/18 15:21:05;;;;;;;0.42;0.42;;;;;;;14.99;100.00;99174.52;1743936;81;21035;-52
2021/05/18 15:23:32;;;;;;;2.45;1.27;;;;;;;15.01;100.00;99166.73;1745751;81;21043;-51
2021/05/18 15:25:58;;;;;;;0.40;0.40;;;;;;;15.04;100.00;99171.55;1743275;81;21053;-52
2021/05/18 15:28:25;;;;;;;0.40;0.40;;;;;;;15.11;100.00;99181.18;1744256;81;21082;-51
2021/05/18 15:30:52;;;;;;;0.20;0.20;;;;;;;15.16;100.00;99175.48;1730154;81;21319;-45
2021/05/18 15:33:20;;;;;;;0.42;0.40;;;;;;;15.23;100.00;99167.45;1733619;81;21087;-45
2021/05/18 15:35:46;;;;;;;0.55;0.50;;;;;;;15.28;100.00;99158.97;1747023;81;21512;-45
2021/05/18 15:38:14;;;;;;;0.65;0.55;;;;;;;15.34;100.00;99164.50;1743020;81;21215;-46
2021/05/18 15:40:40;;;;;;;2.08;1.22;;;;;;;15.43;100.00;99169.33;1748067;81;21066;-49
2021/05/18 15:43:07;;;;;;;0.40;0.40;;;;;;;15.55;100.00;99179.52;1736162;81;21093;-45
2021/05/18 15:45:34;;;;;;;0.50;0.45;;;;;;;15.66;100.00;99177.14;1719194;82;21689;-43
2021/05/18 15:48:04;;;;;;;0.53;0.53;;;;;;;15.75;100.00;99177.86;1740830;81;21069;-44
2021/05/18 15:50:31;;;;;;;1.52;0.30;;;;;;;15.80;100.00;99166.61;1744618;80;21543;-47
2021/05/18 15:52:58;;;;;;;0.80;0.65;;;;;;;15.87;100.00;99164.08;1715660;81;20956;-46
2021/05/18 15:55:25;;;;;;;0.93;0.88;;;;;;;15.93;100.00;99169.36;1723169;81;21042;-46
2021/05/18 15:57:51;;;;;;;0.50;0.45;;;;;;;15.97;100.00;99175.76;1733574;81;21043;-46
2021/05/18 16:00:20;;;;;;;0.72;0.50;;;;;;;16.00;100.00;99173.68;1740783;80;21031;-42
2021/05/18 16:02:47;;;;;;;0.53;0.53;;;;;;;16.03;100.00;99171.63;1743207;81;21058;-43
2021/05/18 16:05:14;;;;;;;0.65;0.65;;;;;;;16.06;100.00;99164.05;1742799;81;21453;-44
2021/05/18 16:07:43;;;;;;;0.62;0.62;;;;;;;16.07;100.00;99155.99;1738251;81;21575;-43
2021/05/18 16:10:10;;;;;;;0.78;0.30;;;;;;;16.09;100.00;99151.73;1732295;81;21716;-46
2021/05/18 16:12:36;;;;;;;0.72;0.72;;;;;;;16.13;100.00;99160.13;1746531;81;21647;-43
2021/05/18 16:15:05;;;;;;;0.75;0.75;;;;;;;16.15;100.00;99154.25;1735039;80;21066;-46
2021/05/18 16:17:32;;;;;;;0.50;0.40;;;;;;;16.14;100.00;99149.33;1738103;81;21003;-46
2021/05/18 16:20:00;;;;;;;0.75;0.50;;;;;;;16.14;100.00;99142.44;1762639;80;21548;-41
2021/05/18 16:22:28;;;;;;;0.42;0.42;;;;;;;16.13;100.00;99139.46;1735277;81;20961;-46
2021/05/18 16:24:55;;;;;;;0.57;0.57;;;;;;;16.14;100.00;99139.67;1743073;79;21959;-46
2021/05/18 16:27:21;;;;;;;0.68;0.35;;;;;;;16.16;100.00;99140.13;1731742;81;21050;-44
2021/05/18 16:29:47;;;;;;;0.80;0.57;;;;;;;16.15;100.00;99135.79;1746484;81;21097;-42
2021/05/18 16:32:14;;;;;;;0.80;0.75;;;;;;;16.15;100.00;99134.96;1733342;81;21689;-46
2021/05/18 16:34:41;;;;;;;0.50;0.45;;;;;;;16.11;100.00;99137.63;1749921;81;21584;-41
2021/05/18 16:37:07;;;;;;;0.57;0.57;;;;;;;16.07;100.00;99133.95;1693154;81;21090;-46
2021/05/18 16:39:34;;;;;;;1.27;0.70;;;;;;;16.02;100.00;99139.16;1738325;81;20995;-46
2021/05/18 16:42:01;;;;;;;2.05;0.57;;;;;;;15.97;100.00;99131.68;1743765;81;21049;-41
2021/05/18 16:44:29;;;;;;;1.02;0.45;;;;;;;15.91;100.00;99131.92;1730390;81;21057;-41